Arrowhead, Minnesota
Current Conditions -  °F | °C
As of 4:16 AM on Friday 24 Oct 2014 (Local Time) from KCOQ Reporting Station
Haze Haze  
Wind Chill: 42°   Ceiling: 400
Heat Index: 46°   Visibility: 3mi
Dew Point: 46°   Wind: 8mph
Humidity: 100%   Direction: 190°S
Pressure: 29.9"   Gusts: NA
Location:  46.8211°N, 92.6871°W
Report Text: KCOQ 240916Z AUTO 19007KT 3SM BR BKN004 08/08 A2990 RMK AO2
Loading
Personal Weather Stations






























Interactive Weather Map
Tropical Storm Tracking
New forecast layout! Learn more

10-Day Weather Forecast

Advertisements
Track Severe Weather on mobile